Time,TemperatureF,DewpointF,PressureIn,WindDirection,WindDirectionDegrees,WindSpeedMPH,WindSpeedGustMPH,Humidity,HourlyPrecipIn,Conditions,Clouds,dailyrainin,SoftwareType,DateUTC
2014-01-21 00:02:00,11.0,7.0,30.21,North,5,0.0,0.0,82,0.00,,,0.00,,2014-01-21 07:02:00,
2014-01-21 02:11:00,11.0,7.0,30.09,North,5,0.0,0.0,85,0.00,,,0.00,,2014-01-21 09:11:00,
2014-01-21 02:22:00,11.0,7.0,30.09,North,5,2.0,3.0,85,0.00,,,0.00,,2014-01-21 09:22:00,
2014-01-21 02:43:00,10.0,6.0,30.07,North,5,2.0,4.0,85,0.00,,,0.00,,2014-01-21 09:43:00,
2014-01-21 02:53:00,10.0,7.0,30.06,North,5,3.0,4.0,86,0.00,,,0.00,,2014-01-21 09:53:00,
2014-01-21 03:13:00,10.0,7.0,30.05,North,5,3.0,5.0,86,0.00,,,0.00,,2014-01-21 10:13:00,
2014-01-21 03:23:00,10.0,7.0,30.05,North,5,3.0,5.0,86,0.00,,,0.00,,2014-01-21 10:23:00,
2014-01-21 03:33:00,10.0,7.0,30.05,North,5,3.0,5.0,86,0.00,,,0.00,,2014-01-21 10:33:00,
2014-01-21 05:52:00,15.0,12.0,29.99,SSE,166,8.0,11.0,88,0.00,,,0.00,,2014-01-21 12:52:00,
2014-01-21 06:11:00,16.0,13.0,29.99,South,174,9.0,13.0,88,0.00,,,0.00,,2014-01-21 13:11:00,
2014-01-21 09:23:00,31.0,23.0,30.09,NW,315,3.0,10.0,71,0.00,,,0.00,,2014-01-21 16:23:00,
2014-01-21 09:33:00,31.0,23.0,30.09,NW,315,3.0,10.0,71,0.00,,,0.00,,2014-01-21 16:33:00,
2014-01-21 09:43:00,31.0,23.0,30.09,NW,315,3.0,10.0,71,0.00,,,0.00,,2014-01-21 16:43:00,
2014-01-21 09:52:00,31.0,23.0,30.10,WNW,294,2.0,9.0,72,0.00,,,0.00,,2014-01-21 16:52:00,
2014-01-21 10:12:00,31.0,23.0,30.11,WNW,294,1.0,6.0,72,0.00,,,0.00,,2014-01-21 17:12:00,
2014-01-21 10:22:00,31.0,22.0,30.12,WNW,294,0.0,5.0,70,0.00,,,0.00,,2014-01-21 17:22:00,
2014-01-21 10:33:00,31.0,22.0,30.12,WNW,294,0.0,5.0,70,0.00,,,0.00,,2014-01-21 17:33:00,
2014-01-21 10:42:00,31.0,22.0,30.12,WNW,294,0.0,5.0,70,0.00,,,0.00,,2014-01-21 17:42:00,
2014-01-21 12:52:00,34.0,23.0,30.11,NW,310,15.0,24.0,63,0.00,,,0.00,,2014-01-21 19:52:00,
2014-01-21 13:11:00,34.0,23.0,30.11,NNW,332,15.0,24.0,63,0.00,,,0.00,,2014-01-21 20:11:00,
2014-01-21 13:22:00,34.0,23.0,30.11,NNW,332,15.0,24.0,63,0.00,,,0.00,,2014-01-21 20:22:00,
2014-01-21 13:52:00,32.0,22.0,30.10,NW,317,16.0,29.0,66,0.00,,,0.00,,2014-01-21 20:52:00,
2014-01-21 14:02:00,32.0,22.0,30.10,NW,317,16.0,29.0,66,0.00,,,0.00,,2014-01-21 21:02:00,
2014-01-21 14:11:00,32.0,22.0,30.10,NW,317,16.0,29.0,66,0.00,,,0.00,,2014-01-21 21:11:00,
2014-01-21 14:21:00,32.0,22.0,30.10,NW,317,16.0,29.0,66,0.00,,,0.00,,2014-01-21 21:21:00,
2014-01-21 16:42:00,31.0,24.0,30.13,NNW,329,3.0,7.0,74,0.00,,,0.00,,2014-01-21 23:42:00,
2014-01-21 16:52:00,31.0,24.0,30.14,NNW,331,3.0,6.0,74,0.00,,,0.00,,2014-01-21 23:52:00,
2014-01-21 17:11:00,31.0,23.0,30.14,NNW,332,10.0,15.0,73,0.00,,,0.00,,2014-01-22 00:11:00,
2014-01-21 17:22:00,30.0,23.0,30.15,NNW,336,5.0,13.0,74,0.00,,,0.00,,2014-01-22 00:22:00,
2014-01-21 17:32:00,30.0,23.0,30.15,NNW,336,5.0,13.0,74,0.00,,,0.00,,2014-01-22 00:32:00,
2014-01-21 17:42:00,30.0,23.0,30.15,NNW,336,5.0,13.0,74,0.00,,,0.00,,2014-01-22 00:42:00,
2014-01-21 17:52:00,30.0,23.0,30.15,NNW,336,5.0,13.0,74,0.00,,,0.00,,2014-01-22 00:52:00,
2014-01-21 20:12:00,26.0,21.0,30.13,North,355,0.0,0.0,81,0.00,,,0.00,,2014-01-22 03:12:00,
2014-01-21 20:22:00,26.0,21.0,30.14,North,355,0.0,0.0,81,0.00,,,0.00,,2014-01-22 03:22:00,
2014-01-21 20:43:00,26.0,22.0,30.14,North,355,0.0,0.0,83,0.00,,,0.00,,2014-01-22 03:43:00,
2014-01-21 20:53:00,26.0,22.0,30.14,North,355,0.0,0.0,83,0.00,,,0.00,,2014-01-22 03:53:00,
2014-01-21 21:13:00,26.0,22.0,30.13,North,355,0.0,0.0,84,0.00,,,0.00,,2014-01-22 04:13:00,
2014-01-21 21:23:00,26.0,22.0,30.13,North,355,0.0,0.0,84,0.00,,,0.00,,2014-01-22 04:23:00,
2014-01-21 21:33:00,26.0,22.0,30.13,North,355,0.0,0.0,84,0.00,,,0.00,,2014-01-22 04:33:00,
2014-01-21 23:42:00,29.0,22.0,30.12,NW,323,9.0,13.0,76,0.00,,,0.00,,2014-01-22 06:42:00,
2014-01-21 23:52:00,29.0,22.0,30.12,NW,309,6.0,13.0,75,0.00,,,0.00,,2014-01-22 06:52:00,